sensor_id;sensor_type;location;lat;lon;timestamp;P1;durP1;ratioP1;P2;durP2;ratioP2
7703;SDS011;3894;49.700;10.770;2023-05-16T00:01:17;9.88;;;5.70;;
7703;SDS011;3894;49.700;10.770;2023-05-16T00:03:43;10.85;;;5.95;;
7703;SDS011;3894;49.700;10.770;2023-05-16T00:06:09;11.18;;;5.75;;
7703;SDS011;3894;49.700;10.770;2023-05-16T00:08:35;9.65;;;5.25;;
7703;SDS011;3894;49.700;10.770;2023-05-16T00:11:00;9.98;;;5.53;;
7703;SDS011;3894;49.700;10.770;2023-05-16T00:13:27;11.70;;;6.15;;
7703;SDS011;3894;49.700;10.770;2023-05-16T00:15:53;9.98;;;5.22;;
7703;SDS011;3894;49.700;10.770;2023-05-16T00:18:20;10.23;;;4.72;;
7703;SDS011;3894;49.700;10.770;2023-05-16T00:20:46;12.15;;;6.03;;
7703;SDS011;3894;49.700;10.770;2023-05-16T00:23:13;9.70;;;5.57;;
7703;SDS011;3894;49.700;10.770;2023-05-16T00:25:39;11.27;;;6.30;;
7703;SDS011;3894;49.700;10.770;2023-05-16T00:28:05;11.85;;;5.90;;
7703;SDS011;3894;49.700;10.770;2023-05-16T00:30:31;12.50;;;6.47;;
7703;SDS011;3894;49.700;10.770;2023-05-16T00:32:56;11.02;;;6.13;;
7703;SDS011;3894;49.700;10.770;2023-05-16T00:35:22;11.38;;;5.78;;
7703;SDS011;3894;49.700;10.770;2023-05-16T00:37:48;15.35;;;7.75;;
7703;SDS011;3894;49.700;10.770;2023-05-16T00:40:14;11.40;;;6.47;;
7703;SDS011;3894;49.700;10.770;2023-05-16T00:42:40;12.63;;;6.43;;
7703;SDS011;3894;49.700;10.770;2023-05-16T00:45:06;10.50;;;5.75;;
7703;SDS011;3894;49.700;10.770;2023-05-16T00:47:32;9.90;;;5.35;;
7703;SDS011;3894;49.700;10.770;2023-05-16T00:49:57;11.95;;;5.68;;
7703;SDS011;3894;49.700;10.770;2023-05-16T00:52:23;9.40;;;5.82;;
7703;SDS011;3894;49.700;10.770;2023-05-16T00:54:50;10.80;;;5.75;;
7703;SDS011;3894;49.700;10.770;2023-05-16T00:57:16;8.38;;;5.45;;
7703;SDS011;3894;49.700;10.770;2023-05-16T00:59:42;9.90;;;4.97;;
7703;SDS011;3894;49.700;10.770;2023-05-16T01:02:08;10.88;;;5.40;;
7703;SDS011;3894;49.700;10.770;2023-05-16T01:04:34;9.48;;;5.55;;
7703;SDS011;3894;49.700;10.770;2023-05-16T01:07:00;9.30;;;4.75;;
7703;SDS011;3894;49.700;10.770;2023-05-16T01:09:26;10.73;;;5.45;;
7703;SDS011;3894;49.700;10.770;2023-05-16T01:11:57;10.90;;;5.78;;
7703;SDS011;3894;49.700;10.770;2023-05-16T01:25:00;10.45;;;5.93;;
7703;SDS011;3894;49.700;10.770;2023-05-16T01:27:35;9.27;;;5.05;;
7703;SDS011;3894;49.700;10.770;2023-05-16T01:30:16;9.60;;;4.90;;
7703;SDS011;3894;49.700;10.770;2023-05-16T01:32:42;10.90;;;5.57;;
7703;SDS011;3894;49.700;10.770;2023-05-16T01:35:08;9.68;;;5.30;;
7703;SDS011;3894;49.700;10.770;2023-05-16T01:37:41;10.07;;;6.00;;
7703;SDS011;3894;49.700;10.770;2023-05-16T01:43:10;9.52;;;5.32;;
7703;SDS011;3894;49.700;10.770;2023-05-16T01:45:40;10.05;;;5.43;;
7703;SDS011;3894;49.700;10.770;2023-05-16T01:51:36;10.95;;;5.78;;
7703;SDS011;3894;49.700;10.770;2023-05-16T01:54:05;12.57;;;7.18;;
7703;SDS011;3894;49.700;10.770;2023-05-16T01:56:36;11.38;;;6.60;;
7703;SDS011;3894;49.700;10.770;2023-05-16T01:59:02;12.32;;;7.32;;
7703;SDS011;3894;49.700;10.770;2023-05-16T02:01:28;11.55;;;6.18;;
7703;SDS011;3894;49.700;10.770;2023-05-16T02:03:55;10.20;;;6.35;;
7703;SDS011;3894;49.700;10.770;2023-05-16T02:06:21;9.77;;;5.25;;
7703;SDS011;3894;49.700;10.770;2023-05-16T02:08:48;10.73;;;6.60;;
7703;SDS011;3894;49.700;10.770;2023-05-16T02:11:13;12.32;;;7.05;;
7703;SDS011;3894;49.700;10.770;2023-05-16T02:13:39;10.15;;;6.03;;
7703;SDS011;3894;49.700;10.770;2023-05-16T02:16:05;11.38;;;6.45;;
7703;SDS011;3894;49.700;10.770;2023-05-16T02:18:30;10.07;;;5.68;;
7703;SDS011;3894;49.700;10.770;2023-05-16T02:20:56;9.20;;;4.90;;
7703;SDS011;3894;49.700;10.770;2023-05-16T02:23:22;10.88;;;6.20;;
7703;SDS011;3894;49.700;10.770;2023-05-16T02:25:47;9.88;;;5.38;;
7703;SDS011;3894;49.700;10.770;2023-05-16T02:28:13;10.07;;;5.65;;
7703;SDS011;3894;49.700;10.770;2023-05-16T02:30:38;12.48;;;5.80;;
7703;SDS011;3894;49.700;10.770;2023-05-16T02:33:04;12.40;;;5.47;;
7703;SDS011;3894;49.700;10.770;2023-05-16T02:35:29;9.88;;;5.25;;
7703;SDS011;3894;49.700;10.770;2023-05-16T02:37:55;12.18;;;5.65;;
7703;SDS011;3894;49.700;10.770;2023-05-16T02:40:21;12.07;;;6.13;;
7703;SDS011;3894;49.700;10.770;2023-05-16T02:42:46;9.70;;;5.97;;
7703;SDS011;3894;49.700;10.770;2023-05-16T02:45:12;11.30;;;6.20;;
7703;SDS011;3894;49.700;10.770;2023-05-16T02:47:37;11.20;;;6.28;;
7703;SDS011;3894;49.700;10.770;2023-05-16T02:50:03;13.77;;;7.15;;
7703;SDS011;3894;49.700;10.770;2023-05-16T02:52:29;12.52;;;6.78;;
7703;SDS011;3894;49.700;10.770;2023-05-16T02:54:55;10.98;;;6.22;;
7703;SDS011;3894;49.700;10.770;2023-05-16T02:57:21;13.07;;;7.00;;
7703;SDS011;3894;49.700;10.770;2023-05-16T02:59:46;11.40;;;6.47;;
7703;SDS011;3894;49.700;10.770;2023-05-16T03:02:12;10.52;;;6.50;;
7703;SDS011;3894;49.700;10.770;2023-05-16T03:04:37;11.98;;;6.90;;
7703;SDS011;3894;49.700;10.770;2023-05-16T03:07:03;14.95;;;7.22;;
7703;SDS011;3894;49.700;10.770;2023-05-16T03:09:28;14.15;;;7.30;;
7703;SDS011;3894;49.700;10.770;2023-05-16T03:11:54;12.77;;;6.55;;
7703;SDS011;3894;49.700;10.770;2023-05-16T03:14:20;12.30;;;7.15;;
7703;SDS011;3894;49.700;10.770;2023-05-16T03:16:45;14.02;;;7.60;;
7703;SDS011;3894;49.700;10.770;2023-05-16T03:19:11;13.77;;;8.48;;
7703;SDS011;3894;49.700;10.770;2023-05-16T03:21:38;13.10;;;6.50;;
7703;SDS011;3894;49.700;10.770;2023-05-16T03:24:03;14.20;;;8.35;;
7703;SDS011;3894;49.700;10.770;2023-05-16T03:26:29;13.90;;;7.32;;
7703;SDS011;3894;49.700;10.770;2023-05-16T03:28:55;13.90;;;7.50;;
7703;SDS011;3894;49.700;10.770;2023-05-16T03:31:20;14.52;;;7.22;;
7703;SDS011;3894;49.700;10.770;2023-05-16T03:33:46;11.93;;;7.00;;
7703;SDS011;3894;49.700;10.770;2023-05-16T03:36:12;12.50;;;7.13;;
7703;SDS011;3894;49.700;10.770;2023-05-16T03:38:37;13.13;;;8.05;;
7703;SDS011;3894;49.700;10.770;2023-05-16T03:41:03;13.18;;;6.40;;
7703;SDS011;3894;49.700;10.770;2023-05-16T03:43:29;12.80;;;6.82;;
7703;SDS011;3894;49.700;10.770;2023-05-16T03:45:54;11.80;;;6.25;;
7703;SDS011;3894;49.700;10.770;2023-05-16T03:48:20;13.57;;;6.18;;
7703;SDS011;3894;49.700;10.770;2023-05-16T03:50:46;11.95;;;6.82;;
7703;SDS011;3894;49.700;10.770;2023-05-16T03:53:11;12.55;;;6.53;;
7703;SDS011;3894;49.700;10.770;2023-05-16T03:55:37;11.75;;;5.50;;
7703;SDS011;3894;49.700;10.770;2023-05-16T03:58:03;11.00;;;6.45;;
7703;SDS011;3894;49.700;10.770;2023-05-16T04:00:28;10.93;;;6.03;;
7703;SDS011;3894;49.700;10.770;2023-05-16T04:02:54;11.63;;;6.63;;
7703;SDS011;3894;49.700;10.770;2023-05-16T04:05:20;12.40;;;6.28;;
7703;SDS011;3894;49.700;10.770;2023-05-16T04:07:46;13.15;;;6.80;;
7703;SDS011;3894;49.700;10.770;2023-05-16T04:10:11;12.05;;;6.40;;
7703;SDS011;3894;49.700;10.770;2023-05-16T04:12:38;22.98;;;8.18;;
7703;SDS011;3894;49.700;10.770;2023-05-16T04:15:03;13.63;;;7.32;;
7703;SDS011;3894;49.700;10.770;2023-05-16T04:17:30;11.05;;;6.97;;
7703;SDS011;3894;49.700;10.770;2023-05-16T04:19:56;14.27;;;7.22;;
7703;SDS011;3894;49.700;10.770;2023-05-16T04:22:22;10.25;;;6.50;;
7703;SDS011;3894;49.700;10.770;2023-05-16T04:24:47;11.35;;;6.45;;
7703;SDS011;3894;49.700;10.770;2023-05-16T04:27:13;12.73;;;6.70;;
7703;SDS011;3894;49.700;10.770;2023-05-16T04:29:39;12.93;;;7.40;;
7703;SDS011;3894;49.700;10.770;2023-05-16T04:32:05;11.23;;;6.15;;
7703;SDS011;3894;49.700;10.770;2023-05-16T04:34:31;10.85;;;6.22;;
7703;SDS011;3894;49.700;10.770;2023-05-16T04:36:58;11.27;;;5.90;;
7703;SDS011;3894;49.700;10.770;2023-05-16T04:39:24;14.70;;;6.90;;
7703;SDS011;3894;49.700;10.770;2023-05-16T04:41:49;12.23;;;6.97;;
7703;SDS011;3894;49.700;10.770;2023-05-16T04:44:15;12.75;;;7.55;;
7703;SDS011;3894;49.700;10.770;2023-05-16T04:46:41;11.57;;;6.90;;
7703;SDS011;3894;49.700;10.770;2023-05-16T04:49:06;10.05;;;5.90;;
7703;SDS011;3894;49.700;10.770;2023-05-16T04:51:32;13.13;;;6.97;;
7703;SDS011;3894;49.700;10.770;2023-05-16T04:53:58;12.40;;;6.38;;
7703;SDS011;3894;49.700;10.770;2023-05-16T04:56:24;13.50;;;7.65;;
7703;SDS011;3894;49.700;10.770;2023-05-16T04:58:53;13.65;;;7.03;;
7703;SDS011;3894;49.700;10.770;2023-05-16T05:01:19;12.18;;;7.03;;
7703;SDS011;3894;49.700;10.770;2023-05-16T05:03:44;10.75;;;6.22;;
7703;SDS011;3894;49.700;10.770;2023-05-16T05:06:10;12.57;;;6.75;;
7703;SDS011;3894;49.700;10.770;2023-05-16T05:08:35;13.18;;;7.53;;
7703;SDS011;3894;49.700;10.770;2023-05-16T05:11:01;14.30;;;7.53;;
7703;SDS011;3894;49.700;10.770;2023-05-16T05:13:27;12.00;;;7.68;;
7703;SDS011;3894;49.700;10.770;2023-05-16T05:15:52;15.32;;;8.60;;
7703;SDS011;3894;49.700;10.770;2023-05-16T05:18:18;15.40;;;8.48;;
7703;SDS011;3894;49.700;10.770;2023-05-16T05:20:43;12.98;;;7.82;;
7703;SDS011;3894;49.700;10.770;2023-05-16T05:23:09;16.65;;;7.93;;
7703;SDS011;3894;49.700;10.770;2023-05-16T05:25:35;13.35;;;8.23;;
7703;SDS011;3894;49.700;10.770;2023-05-16T05:28:00;15.10;;;8.10;;
7703;SDS011;3894;49.700;10.770;2023-05-16T05:30:26;13.13;;;7.72;;
7703;SDS011;3894;49.700;10.770;2023-05-16T05:32:52;13.88;;;7.88;;
7703;SDS011;3894;49.700;10.770;2023-05-16T05:35:18;12.85;;;7.35;;
7703;SDS011;3894;49.700;10.770;2023-05-16T05:37:44;14.48;;;7.82;;
7703;SDS011;3894;49.700;10.770;2023-05-16T05:40:10;13.85;;;7.65;;
7703;SDS011;3894;49.700;10.770;2023-05-16T05:42:36;14.27;;;8.23;;
7703;SDS011;3894;49.700;10.770;2023-05-16T05:45:01;12.98;;;8.00;;
7703;SDS011;3894;49.700;10.770;2023-05-16T05:47:27;12.98;;;7.75;;
7703;SDS011;3894;49.700;10.770;2023-05-16T05:49:53;12.32;;;6.97;;
7703;SDS011;3894;49.700;10.770;2023-05-16T05:52:19;13.38;;;7.95;;
7703;SDS011;3894;49.700;10.770;2023-05-16T05:54:44;13.30;;;7.57;;
7703;SDS011;3894;49.700;10.770;2023-05-16T05:57:11;19.02;;;8.30;;
7703;SDS011;3894;49.700;10.770;2023-05-16T05:59:37;13.38;;;6.85;;
7703;SDS011;3894;49.700;10.770;2023-05-16T06:02:02;13.30;;;7.75;;
7703;SDS011;3894;49.700;10.770;2023-05-16T06:04:28;13.50;;;7.43;;
7703;SDS011;3894;49.700;10.770;2023-05-16T06:06:53;12.80;;;7.70;;
7703;SDS011;3894;49.700;10.770;2023-05-16T06:09:20;12.48;;;7.07;;
7703;SDS011;3894;49.700;10.770;2023-05-16T06:11:46;11.52;;;6.10;;
7703;SDS011;3894;49.700;10.770;2023-05-16T06:14:12;13.07;;;6.75;;
7703;SDS011;3894;49.700;10.770;2023-05-16T06:16:39;12.60;;;6.53;;
7703;SDS011;3894;49.700;10.770;2023-05-16T06:19:05;14.55;;;8.18;;
7703;SDS011;3894;49.700;10.770;2023-05-16T06:21:31;13.13;;;7.50;;
7703;SDS011;3894;49.700;10.770;2023-05-16T06:23:57;13.00;;;6.70;;
7703;SDS011;3894;49.700;10.770;2023-05-16T06:26:22;15.00;;;7.68;;
7703;SDS011;3894;49.700;10.770;2023-05-16T06:28:48;15.18;;;8.30;;
7703;SDS011;3894;49.700;10.770;2023-05-16T06:31:14;14.40;;;7.75;;
7703;SDS011;3894;49.700;10.770;2023-05-16T06:33:39;13.70;;;7.75;;
7703;SDS011;3894;49.700;10.770;2023-05-16T06:36:05;11.18;;;6.53;;
7703;SDS011;3894;49.700;10.770;2023-05-16T06:38:31;13.40;;;7.13;;
7703;SDS011;3894;49.700;10.770;2023-05-16T06:40:56;12.88;;;7.82;;
7703;SDS011;3894;49.700;10.770;2023-05-16T06:43:22;15.55;;;7.07;;
7703;SDS011;3894;49.700;10.770;2023-05-16T06:45:48;12.45;;;6.85;;
7703;SDS011;3894;49.700;10.770;2023-05-16T06:48:13;10.27;;;6.43;;
7703;SDS011;3894;49.700;10.770;2023-05-16T06:50:39;14.60;;;7.53;;
7703;SDS011;3894;49.700;10.770;2023-05-16T06:53:06;11.77;;;7.30;;
7703;SDS011;3894;49.700;10.770;2023-05-16T06:55:32;13.02;;;7.22;;
7703;SDS011;3894;49.700;10.770;2023-05-16T06:57:58;13.20;;;7.57;;
7703;SDS011;3894;49.700;10.770;2023-05-16T07:00:24;14.02;;;7.88;;
7703;SDS011;3894;49.700;10.770;2023-05-16T07:02:49;12.98;;;7.30;;
7703;SDS011;3894;49.700;10.770;2023-05-16T07:05:15;12.45;;;6.32;;
7703;SDS011;3894;49.700;10.770;2023-05-16T07:07:40;15.73;;;8.80;;
7703;SDS011;3894;49.700;10.770;2023-05-16T07:10:06;15.07;;;7.88;;
7703;SDS011;3894;49.700;10.770;2023-05-16T07:12:34;15.55;;;8.13;;
7703;SDS011;3894;49.700;10.770;2023-05-16T07:15:00;14.20;;;9.05;;
7703;SDS011;3894;49.700;10.770;2023-05-16T07:17:26;14.80;;;8.18;;
7703;SDS011;3894;49.700;10.770;2023-05-16T07:19:52;16.80;;;8.35;;
7703;SDS011;3894;49.700;10.770;2023-05-16T07:22:17;14.80;;;8.68;;
7703;SDS011;3894;49.700;10.770;2023-05-16T07:24:43;15.48;;;9.07;;
7703;SDS011;3894;49.700;10.770;2023-05-16T07:27:08;14.98;;;8.95;;
7703;SDS011;3894;49.700;10.770;2023-05-16T07:29:34;13.65;;;7.97;;
7703;SDS011;3894;49.700;10.770;2023-05-16T07:32:01;15.38;;;8.27;;
7703;SDS011;3894;49.700;10.770;2023-05-16T07:34:27;15.23;;;8.68;;
7703;SDS011;3894;49.700;10.770;2023-05-16T07:36:52;16.75;;;8.77;;
7703;SDS011;3894;49.700;10.770;2023-05-16T07:39:18;15.73;;;8.25;;
7703;SDS011;3894;49.700;10.770;2023-05-16T07:41:44;14.57;;;8.57;;
7703;SDS011;3894;49.700;10.770;2023-05-16T07:44:09;14.77;;;8.55;;
7703;SDS011;3894;49.700;10.770;2023-05-16T07:46:35;14.43;;;8.68;;
7703;SDS011;3894;49.700;10.770;2023-05-16T07:49:00;14.90;;;8.20;;
7703;SDS011;3894;49.700;10.770;2023-05-16T07:51:26;15.77;;;8.82;;
7703;SDS011;3894;49.700;10.770;2023-05-16T07:53:52;13.88;;;8.38;;
7703;SDS011;3894;49.700;10.770;2023-05-16T07:56:18;16.08;;;8.60;;
7703;SDS011;3894;49.700;10.770;2023-05-16T07:58:43;14.93;;;8.25;;
7703;SDS011;3894;49.700;10.770;2023-05-16T08:01:10;15.25;;;7.88;;
7703;SDS011;3894;49.700;10.770;2023-05-16T08:03:35;13.40;;;7.95;;
7703;SDS011;3894;49.700;10.770;2023-05-16T08:06:01;13.52;;;7.50;;
7703;SDS011;3894;49.700;10.770;2023-05-16T08:08:27;15.05;;;8.13;;
7703;SDS011;3894;49.700;10.770;2023-05-16T08:10:52;13.85;;;7.78;;
7703;SDS011;3894;49.700;10.770;2023-05-16T08:13:18;14.30;;;7.38;;
7703;SDS011;3894;49.700;10.770;2023-05-16T08:15:44;16.02;;;7.75;;
7703;SDS011;3894;49.700;10.770;2023-05-16T08:18:13;13.27;;;7.45;;
7703;SDS011;3894;49.700;10.770;2023-05-16T08:20:40;14.18;;;7.50;;
7703;SDS011;3894;49.700;10.770;2023-05-16T08:23:06;14.95;;;8.30;;
7703;SDS011;3894;49.700;10.770;2023-05-16T08:25:32;12.57;;;6.97;;
7703;SDS011;3894;49.700;10.770;2023-05-16T08:27:58;14.50;;;7.97;;
7703;SDS011;3894;49.700;10.770;2023-05-16T08:30:25;14.73;;;8.43;;
7703;SDS011;3894;49.700;10.770;2023-05-16T08:32:51;17.52;;;8.60;;
7703;SDS011;3894;49.700;10.770;2023-05-16T08:35:17;14.93;;;7.60;;
7703;SDS011;3894;49.700;10.770;2023-05-16T08:37:42;14.20;;;7.53;;
7703;SDS011;3894;49.700;10.770;2023-05-16T08:40:08;15.13;;;7.97;;
7703;SDS011;3894;49.700;10.770;2023-05-16T08:42:35;15.95;;;7.97;;
7703;SDS011;3894;49.700;10.770;2023-05-16T08:45:01;14.23;;;6.70;;
7703;SDS011;3894;49.700;10.770;2023-05-16T08:47:28;13.80;;;7.15;;
7703;SDS011;3894;49.700;10.770;2023-05-16T08:49:56;12.00;;;6.63;;
7703;SDS011;3894;49.700;10.770;2023-05-16T08:52:23;13.68;;;6.43;;
7703;SDS011;3894;49.700;10.770;2023-05-16T08:54:52;14.43;;;6.70;;
7703;SDS011;3894;49.700;10.770;2023-05-16T08:57:18;11.27;;;5.90;;
7703;SDS011;3894;49.700;10.770;2023-05-16T08:59:45;12.77;;;6.03;;
7703;SDS011;3894;49.700;10.770;2023-05-16T09:02:11;12.98;;;6.20;;
7703;SDS011;3894;49.700;10.770;2023-05-16T09:04:37;12.18;;;6.13;;
7703;SDS011;3894;49.700;10.770;2023-05-16T09:07:05;13.13;;;6.57;;
7703;SDS011;3894;49.700;10.770;2023-05-16T09:09:30;9.68;;;5.22;;
7703;SDS011;3894;49.700;10.770;2023-05-16T09:11:56;11.23;;;6.00;;
7703;SDS011;3894;49.700;10.770;2023-05-16T09:14:21;10.70;;;5.70;;
7703;SDS011;3894;49.700;10.770;2023-05-16T09:17:06;11.63;;;5.32;;
7703;SDS011;3894;49.700;10.770;2023-05-16T09:19:39;9.25;;;4.97;;
7703;SDS011;3894;49.700;10.770;2023-05-16T09:22:12;9.15;;;4.88;;
7703;SDS011;3894;49.700;10.770;2023-05-16T09:24:39;9.70;;;4.35;;
7703;SDS011;3894;49.700;10.770;2023-05-16T09:27:09;9.77;;;4.47;;
7703;SDS011;3894;49.700;10.770;2023-05-16T09:29:39;9.80;;;4.03;;
7703;SDS011;3894;49.700;10.770;2023-05-16T09:32:12;8.40;;;3.65;;
7703;SDS011;3894;49.700;10.770;2023-05-16T09:34:44;9.68;;;3.88;;
7703;SDS011;3894;49.700;10.770;2023-05-16T09:37:13;9.05;;;4.53;;
7703;SDS011;3894;49.700;10.770;2023-05-16T09:39:49;8.95;;;4.03;;
7703;SDS011;3894;49.700;10.770;2023-05-16T09:42:17;9.48;;;4.25;;
7703;SDS011;3894;49.700;10.770;2023-05-16T09:44:45;9.05;;;4.60;;
7703;SDS011;3894;49.700;10.770;2023-05-16T09:47:19;9.02;;;4.40;;
7703;SDS011;3894;49.700;10.770;2023-05-16T09:49:45;9.00;;;4.25;;
7703;SDS011;3894;49.700;10.770;2023-05-16T09:52:15;9.00;;;4.22;;
7703;SDS011;3894;49.700;10.770;2023-05-16T09:54:41;9.52;;;4.18;;
7703;SDS011;3894;49.700;10.770;2023-05-16T09:57:07;7.45;;;3.63;;
7703;SDS011;3894;49.700;10.770;2023-05-16T09:59:36;7.40;;;3.75;;
7703;SDS011;3894;49.700;10.770;2023-05-16T10:02:02;8.50;;;3.67;;
7703;SDS011;3894;49.700;10.770;2023-05-16T10:04:32;8.77;;;3.63;;
7703;SDS011;3894;49.700;10.770;2023-05-16T10:07:00;8.00;;;3.53;;
7703;SDS011;3894;49.700;10.770;2023-05-16T10:09:28;7.85;;;3.78;;
7703;SDS011;3894;49.700;10.770;2023-05-16T10:12:01;8.43;;;4.22;;
7703;SDS011;3894;49.700;10.770;2023-05-16T10:14:29;8.93;;;3.97;;
7703;SDS011;3894;49.700;10.770;2023-05-16T10:17:00;7.38;;;3.70;;
7703;SDS011;3894;49.700;10.770;2023-05-16T10:19:31;8.35;;;3.88;;
7703;SDS011;3894;49.700;10.770;2023-05-16T10:22:03;7.28;;;3.83;;
7703;SDS011;3894;49.700;10.770;2023-05-16T10:24:39;6.57;;;2.97;;
7703;SDS011;3894;49.700;10.770;2023-05-16T10:27:05;8.20;;;3.70;;
7703;SDS011;3894;49.700;10.770;2023-05-16T10:29:31;7.82;;;3.58;;
7703;SDS011;3894;49.700;10.770;2023-05-16T10:31:57;7.78;;;3.70;;
7703;SDS011;3894;49.700;10.770;2023-05-16T10:34:24;7.55;;;3.70;;
7703;SDS011;3894;49.700;10.770;2023-05-16T10:36:49;8.13;;;3.33;;
7703;SDS011;3894;49.700;10.770;2023-05-16T10:39:16;9.10;;;3.72;;
7703;SDS011;3894;49.700;10.770;2023-05-16T10:41:43;6.55;;;2.97;;
7703;SDS011;3894;49.700;10.770;2023-05-16T10:44:13;8.00;;;3.60;;
7703;SDS011;3894;49.700;10.770;2023-05-16T10:46:41;6.10;;;3.10;;
7703;SDS011;3894;49.700;10.770;2023-05-16T10:49:18;7.45;;;4.05;;
7703;SDS011;3894;49.700;10.770;2023-05-16T10:52:09;7.40;;;3.03;;
7703;SDS011;3894;49.700;10.770;2023-05-16T10:54:38;6.57;;;3.20;;
7703;SDS011;3894;49.700;10.770;2023-05-16T10:57:09;7.85;;;3.80;;
7703;SDS011;3894;49.700;10.770;2023-05-16T10:59:44;5.97;;;3.25;;
7703;SDS011;3894;49.700;10.770;2023-05-16T11:02:24;10.00;;;3.45;;
7703;SDS011;3894;49.700;10.770;2023-05-16T11:04:59;6.82;;;3.40;;
7703;SDS011;3894;49.700;10.770;2023-05-16T11:07:29;8.75;;;3.75;;
7703;SDS011;3894;49.700;10.770;2023-05-16T11:10:15;7.50;;;3.53;;
7703;SDS011;3894;49.700;10.770;2023-05-16T11:15:19;8.13;;;3.90;;
7703;SDS011;3894;49.700;10.770;2023-05-16T11:17:45;7.43;;;3.20;;
7703;SDS011;3894;49.700;10.770;2023-05-16T11:20:29;8.65;;;3.67;;
7703;SDS011;3894;49.700;10.770;2023-05-16T11:25:43;6.35;;;3.22;;
7703;SDS011;3894;49.700;10.770;2023-05-16T11:28:13;6.93;;;3.15;;
7703;SDS011;3894;49.700;10.770;2023-05-16T11:30:57;8.98;;;2.80;;
7703;SDS011;3894;49.700;10.770;2023-05-16T11:33:23;6.35;;;2.50;;
7703;SDS011;3894;49.700;10.770;2023-05-16T11:35:59;6.35;;;2.47;;
7703;SDS011;3894;49.700;10.770;2023-05-16T11:38:29;6.70;;;2.95;;
7703;SDS011;3894;49.700;10.770;2023-05-16T11:41:03;6.72;;;2.83;;
7703;SDS011;3894;49.700;10.770;2023-05-16T11:43:35;6.07;;;2.33;;
7703;SDS011;3894;49.700;10.770;2023-05-16T11:46:05;6.85;;;2.47;;
7703;SDS011;3894;49.700;10.770;2023-05-16T11:48:31;6.00;;;2.00;;
7703;SDS011;3894;49.700;10.770;2023-05-16T11:50:57;6.18;;;2.47;;
7703;SDS011;3894;49.700;10.770;2023-05-16T11:53:23;6.60;;;2.58;;
7703;SDS011;3894;49.700;10.770;2023-05-16T11:55:48;6.20;;;3.17;;
7703;SDS011;3894;49.700;10.770;2023-05-16T11:58:17;6.55;;;2.85;;
7703;SDS011;3894;49.700;10.770;2023-05-16T12:00:50;5.82;;;2.33;;
7703;SDS011;3894;49.700;10.770;2023-05-16T12:03:17;5.22;;;2.00;;
7703;SDS011;3894;49.700;10.770;2023-05-16T12:05:53;5.45;;;1.98;;
7703;SDS011;3894;49.700;10.770;2023-05-16T12:08:21;5.22;;;1.65;;
7703;SDS011;3894;49.700;10.770;2023-05-16T12:10:48;5.55;;;2.47;;
7703;SDS011;3894;49.700;10.770;2023-05-16T12:13:15;5.53;;;1.80;;
7703;SDS011;3894;49.700;10.770;2023-05-16T12:15:42;4.55;;;1.60;;
7703;SDS011;3894;49.700;10.770;2023-05-16T12:18:08;6.03;;;2.20;;
7703;SDS011;3894;49.700;10.770;2023-05-16T12:20:34;5.40;;;2.42;;
7703;SDS011;3894;49.700;10.770;2023-05-16T12:23:00;5.35;;;2.00;;
7703;SDS011;3894;49.700;10.770;2023-05-16T12:25:27;5.00;;;2.05;;
7703;SDS011;3894;49.700;10.770;2023-05-16T12:27:56;5.18;;;1.95;;
7703;SDS011;3894;49.700;10.770;2023-05-16T12:30:24;6.28;;;2.92;;
7703;SDS011;3894;49.700;10.770;2023-05-16T12:32:55;5.93;;;2.25;;
7703;SDS011;3894;49.700;10.770;2023-05-16T12:35:29;5.20;;;2.22;;
7703;SDS011;3894;49.700;10.770;2023-05-16T12:37:56;5.43;;;2.13;;
7703;SDS011;3894;49.700;10.770;2023-05-16T12:40:22;5.60;;;2.00;;
7703;SDS011;3894;49.700;10.770;2023-05-16T12:42:48;4.93;;;1.92;;
7703;SDS011;3894;49.700;10.770;2023-05-16T12:45:15;4.82;;;1.70;;
7703;SDS011;3894;49.700;10.770;2023-05-16T12:47:42;4.25;;;1.45;;
7703;SDS011;3894;49.700;10.770;2023-05-16T12:50:11;5.38;;;1.52;;
7703;SDS011;3894;49.700;10.770;2023-05-16T12:52:53;5.88;;;1.70;;
7703;SDS011;3894;49.700;10.770;2023-05-16T12:55:22;5.57;;;1.38;;
7703;SDS011;3894;49.700;10.770;2023-05-16T12:57:48;4.75;;;1.60;;
7703;SDS011;3894;49.700;10.770;2023-05-16T13:00:14;5.43;;;1.48;;
7703;SDS011;3894;49.700;10.770;2023-05-16T13:02:43;4.57;;;1.35;;
7703;SDS011;3894;49.700;10.770;2023-05-16T13:05:09;4.38;;;1.30;;
7703;SDS011;3894;49.700;10.770;2023-05-16T13:07:35;3.75;;;1.20;;
7703;SDS011;3894;49.700;10.770;2023-05-16T13:10:03;5.78;;;1.25;;
7703;SDS011;3894;49.700;10.770;2023-05-16T13:12:30;4.25;;;1.23;;
7703;SDS011;3894;49.700;10.770;2023-05-16T13:14:56;4.40;;;1.33;;
7703;SDS011;3894;49.700;10.770;2023-05-16T13:17:21;4.72;;;1.67;;
7703;SDS011;3894;49.700;10.770;2023-05-16T13:19:54;4.47;;;1.52;;
7703;SDS011;3894;49.700;10.770;2023-05-16T13:22:20;4.82;;;1.80;;
7703;SDS011;3894;49.700;10.770;2023-05-16T13:24:45;4.97;;;1.38;;
7703;SDS011;3894;49.700;10.770;2023-05-16T13:27:14;4.13;;;1.02;;
7703;SDS011;3894;49.700;10.770;2023-05-16T13:29:41;4.97;;;1.65;;
7703;SDS011;3894;49.700;10.770;2023-05-16T13:32:07;4.55;;;1.20;;
7703;SDS011;3894;49.700;10.770;2023-05-16T13:34:33;3.88;;;1.40;;
7703;SDS011;3894;49.700;10.770;2023-05-16T13:36:59;4.88;;;1.60;;
7703;SDS011;3894;49.700;10.770;2023-05-16T13:39:24;4.72;;;0.95;;
7703;SDS011;3894;49.700;10.770;2023-05-16T13:41:50;4.97;;;1.15;;
7703;SDS011;3894;49.700;10.770;2023-05-16T13:44:16;3.83;;;1.20;;
7703;SDS011;3894;49.700;10.770;2023-05-16T13:46:42;4.43;;;1.08;;
7703;SDS011;3894;49.700;10.770;2023-05-16T13:49:08;3.58;;;0.98;;
7703;SDS011;3894;49.700;10.770;2023-05-16T13:51:33;5.38;;;1.45;;
7703;SDS011;3894;49.700;10.770;2023-05-16T13:53:59;3.97;;;0.93;;
7703;SDS011;3894;49.700;10.770;2023-05-16T13:56:24;6.38;;;1.13;;
7703;SDS011;3894;49.700;10.770;2023-05-16T13:58:50;4.70;;;1.00;;
7703;SDS011;3894;49.700;10.770;2023-05-16T14:01:16;3.47;;;1.10;;
7703;SDS011;3894;49.700;10.770;2023-05-16T14:03:42;5.18;;;0.85;;
7703;SDS011;3894;49.700;10.770;2023-05-16T14:06:07;3.85;;;1.35;;
7703;SDS011;3894;49.700;10.770;2023-05-16T14:08:34;4.82;;;1.23;;
7703;SDS011;3894;49.700;10.770;2023-05-16T14:11:00;4.53;;;0.82;;
7703;SDS011;3894;49.700;10.770;2023-05-16T14:13:25;3.45;;;0.90;;
7703;SDS011;3894;49.700;10.770;2023-05-16T14:15:51;3.10;;;0.82;;
7703;SDS011;3894;49.700;10.770;2023-05-16T14:18:16;4.82;;;1.20;;
7703;SDS011;3894;49.700;10.770;2023-05-16T14:20:42;3.00;;;0.73;;
7703;SDS011;3894;49.700;10.770;2023-05-16T14:23:07;3.75;;;0.82;;
7703;SDS011;3894;49.700;10.770;2023-05-16T14:25:33;3.67;;;1.08;;
7703;SDS011;3894;49.700;10.770;2023-05-16T14:27:58;3.95;;;1.17;;
7703;SDS011;3894;49.700;10.770;2023-05-16T14:30:24;4.53;;;1.85;;
7703;SDS011;3894;49.700;10.770;2023-05-16T14:32:50;4.03;;;1.02;;
7703;SDS011;3894;49.700;10.770;2023-05-16T14:35:16;4.55;;;1.08;;
7703;SDS011;3894;49.700;10.770;2023-05-16T14:37:42;4.15;;;0.95;;
7703;SDS011;3894;49.700;10.770;2023-05-16T14:40:07;5.70;;;1.73;;
7703;SDS011;3894;49.700;10.770;2023-05-16T14:42:34;6.47;;;2.28;;
7703;SDS011;3894;49.700;10.770;2023-05-16T14:44:59;4.88;;;1.38;;
7703;SDS011;3894;49.700;10.770;2023-05-16T14:47:25;4.18;;;1.45;;
7703;SDS011;3894;49.700;10.770;2023-05-16T14:49:52;7.32;;;2.30;;
7703;SDS011;3894;49.700;10.770;2023-05-16T14:52:18;6.32;;;2.38;;
7703;SDS011;3894;49.700;10.770;2023-05-16T14:54:44;4.80;;;1.77;;
7703;SDS011;3894;49.700;10.770;2023-05-16T14:57:09;4.20;;;1.40;;
7703;SDS011;3894;49.700;10.770;2023-05-16T14:59:35;4.93;;;1.20;;
7703;SDS011;3894;49.700;10.770;2023-05-16T15:02:00;4.93;;;1.02;;
7703;SDS011;3894;49.700;10.770;2023-05-16T15:04:26;4.50;;;1.80;;
7703;SDS011;3894;49.700;10.770;2023-05-16T15:06:52;4.20;;;1.33;;
7703;SDS011;3894;49.700;10.770;2023-05-16T15:09:18;3.63;;;0.93;;
7703;SDS011;3894;49.700;10.770;2023-05-16T15:11:44;5.82;;;1.83;;
7703;SDS011;3894;49.700;10.770;2023-05-16T15:14:10;3.42;;;1.05;;